< < Back
Terminal Aerodrome Forecast


Current Version              Previous Versions:   1  2  3  4  5  6  7  8  9  

Terminal Aerodrome Forecast

458
FTUS42 KTAE 031400 AAB
TAFDHN
TAF AMD
KDHN 031418Z 0314/0412 13004KT P6SM FEW006 BKN012
     FM031500 15007KT P6SM BKN015
     FM031700 18010KT P6SM SCT025 BKN050
     FM040000 17004KT P6SM BKN250
     FM040600 17004KT 1/2SM FG OVC001=



Latest METAR

752
SAUS70 KWBC 040656
MTRDHN
METAR KDHN 040653Z AUTO 22008KT 7SM OVC004 16/16 A3011 RMK AO2 SLP191
T01610156


USA.gov is the U.S. government's official web portal to all federal, state and local government web resources and services.